Time;durP1;ratioP1;P1;durP2;ratioP2;P2;SDS_P1;SDS_P2;PMS_P1;PMS_P2;Temp;Humidity;BMP_temperature;BMP_pressure;BME280_temperature;BME280_humidity;BME280_pressure;Samples;Min_cycle;Max_cycle;Signal;HPM_P1;HPM_P2
2022/10/03 00:03:35;;;;;;;24.00;11.05;;;;;;;10.95;69.41;100771.94;10401655;28;20053;-80
2022/10/03 00:09:12;;;;;;;22.73;13.13;;;;;;;10.79;69.79;100772.75;10402754;28;20059;-81
2022/10/03 00:14:22;;;;;;;26.00;13.73;;;;;;;10.71;70.24;100775.75;10401142;28;20057;-81
2022/10/03 00:19:34;;;;;;;24.38;12.50;;;;;;;10.60;70.02;100775.41;10421896;28;20042;-80
2022/10/03 00:24:55;;;;;;;34.05;14.80;;;;;;;10.46;70.00;100778.63;10402087;28;20057;-80
2022/10/03 00:30:15;;;;;;;25.13;11.83;;;;;;;10.38;70.12;100778.13;10406292;28;20426;-80
2022/10/03 00:35:41;;;;;;;24.48;13.85;;;;;;;10.21;70.52;100787.66;10422501;28;20403;-80
2022/10/03 00:41:08;;;;;;;35.22;12.90;;;;;;;10.16;70.43;100790.47;10419756;28;20049;-80
2022/10/03 00:46:40;;;;;;;17.58;10.90;;;;;;;10.11;70.69;100794.22;10399094;28;20045;-80
2022/10/03 00:52:01;;;;;;;25.50;13.82;;;;;;;10.06;70.76;100802.25;10418363;28;20045;-80
2022/10/03 00:57:21;;;;;;;25.00;13.93;;;;;;;9.97;71.35;100797.41;10416101;28;20056;-80
2022/10/03 01:02:28;;;;;;;27.70;14.35;;;;;;;9.98;70.76;100813.97;10418124;28;20057;-81
2022/10/03 01:08:08;;;;;;;27.48;14.25;;;;;;;9.88;70.72;100817.88;10411905;28;20049;-80
2022/10/03 01:13:10;;;;;;;27.17;13.23;;;;;;;9.88;70.67;100829.19;10399804;28;20499;-80
2022/10/03 01:18:12;;;;;;;30.08;14.23;;;;;;;9.83;70.96;100822.47;10397979;28;20516;-80
2022/10/03 01:23:16;;;;;;;25.52;13.80;;;;;;;9.81;71.20;100826.91;10415554;28;20057;-83
2022/10/03 01:34:25;;;;;;;29.52;14.40;;;;;;;9.67;72.16;100830.09;10417672;28;20061;-83
2022/10/03 01:39:49;;;;;;;33.33;16.45;;;;;;;9.68;72.37;100821.34;10398730;28;20922;-83
2022/10/03 01:45:06;;;;;;;28.70;14.93;;;;;;;9.77;72.48;100831.41;10397952;28;20502;-83
2022/10/03 01:50:30;;;;;;;28.80;17.23;;;;;;;9.77;72.61;100826.16;10394736;28;20053;-84
2022/10/03 01:55:58;;;;;;;26.75;15.38;;;;;;;9.74;72.75;100841.13;10411959;28;20487;-83
2022/10/03 02:01:10;;;;;;;24.13;14.38;;;;;;;9.76;72.55;100840.16;10396929;28;20037;-83
2022/10/03 02:06:20;;;;;;;33.13;16.60;;;;;;;9.81;72.38;100838.19;10420466;28;20056;-83
2022/10/03 02:11:32;;;;;;;32.80;16.75;;;;;;;9.85;72.46;100833.72;10404042;28;20489;-83
2022/10/03 02:16:42;;;;;;;28.90;15.32;;;;;;;9.83;71.57;100838.97;10404688;28;20049;-83
2022/10/03 02:21:51;;;;;;;38.65;18.50;;;;;;;9.78;71.64;100837.47;10415900;28;20041;-83
2022/10/03 02:27:26;;;;;;;33.25;16.83;;;;;;;9.71;71.31;100836.88;10420919;28;20063;-83
2022/10/03 02:32:55;;;;;;;41.00;18.92;;;;;;;9.66;71.33;100831.00;10400329;28;20072;-83
2022/10/03 02:38:22;;;;;;;27.55;17.40;;;;;;;9.53;71.11;100835.84;10402640;28;20052;-83
2022/10/03 02:43:59;;;;;;;39.67;19.67;;;;;;;9.48;71.10;100840.41;10400795;28;20525;-83
2022/10/03 02:49:34;;;;;;;33.53;17.02;;;;;;;9.38;71.11;100846.91;10421798;28;20068;-83
2022/10/03 02:55:06;;;;;;;26.65;14.75;;;;;;;9.28;71.37;100855.19;10409882;28;20049;-83
2022/10/03 03:00:31;;;;;;;43.28;20.83;;;;;;;9.31;71.28;100866.34;10409206;28;20081;-83
2022/10/03 03:05:55;;;;;;;36.95;18.80;;;;;;;9.26;71.60;100877.91;10424642;28;20049;-83
2022/10/03 03:11:28;;;;;;;41.60;19.23;;;;;;;9.27;71.15;100883.06;10408641;28;20056;-82
2022/10/03 03:16:46;;;;;;;26.05;14.05;;;;;;;9.32;71.47;100875.88;10395304;28;20491;-83
2022/10/03 03:21:54;;;;;;;47.65;18.95;;;;;;;9.68;70.98;100873.59;10419160;28;20128;-83
2022/10/03 03:27:34;;;;;;;46.97;20.15;;;;;;;9.67;70.98;100881.50;10405113;28;20053;-83
2022/10/03 03:32:41;;;;;;;45.40;21.13;;;;;;;9.85;70.44;100875.50;10421357;28;20064;-83
2022/10/03 03:38:02;;;;;;;35.38;17.70;;;;;;;9.65;70.01;100884.97;10420480;28;20045;-83
2022/10/03 03:43:24;;;;;;;24.33;14.47;;;;;;;9.40;70.25;100884.25;10402571;28;20144;-83
2022/10/03 03:49:00;;;;;;;55.13;17.88;;;;;;;9.24;70.22;100888.38;10421341;28;20502;-83
2022/10/03 03:54:02;;;;;;;39.33;15.57;;;;;;;9.14;70.39;100896.63;10422147;28;20088;-83
2022/10/03 03:59:22;;;;;;;445.00;27.23;;;;;;;9.04;70.16;100901.34;10403994;28;20052;-83
2022/10/03 04:04:55;;;;;;;644.83;24.25;;;;;;;8.82;70.49;100895.25;10421559;28;20053;-83
2022/10/03 04:10:20;;;;;;;471.08;17.10;;;;;;;8.77;70.53;100912.84;10400326;28;20061;-82
2022/10/03 04:15:34;;;;;;;33.80;11.45;;;;;;;8.94;70.76;100915.66;10416174;28;20056;-82
2022/10/03 04:21:11;;;;;;;16.50;11.50;;;;;;;9.18;70.81;100919.94;10398350;28;20291;-83
2022/10/03 04:26:58;;;;;;;24.55;13.75;;;;;;;9.40;70.21;100912.97;10366701;28;20168;-82
2022/10/03 04:32:18;;;;;;;26.85;14.23;;;;;;;9.53;69.87;100911.59;10399302;28;20097;-81
2022/10/03 04:37:44;;;;;;;29.05;13.55;;;;;;;9.61;69.78;100904.28;10415121;28;20522;-82
2022/10/03 04:42:54;;;;;;;25.55;13.20;;;;;;;9.77;69.59;100911.56;10395493;28;20067;-81
2022/10/03 04:48:12;;;;;;;34.40;16.97;;;;;;;9.73;69.30;100897.75;10416253;28;20052;-81
2022/10/03 04:53:27;;;;;;;21.63;13.10;;;;;;;9.57;69.44;100907.94;10413099;28;20068;-82
2022/10/03 04:58:38;;;;;;;22.88;12.93;;;;;;;9.64;69.36;100919.00;10400411;28;20053;-82
2022/10/03 05:03:42;;;;;;;33.38;15.65;;;;;;;9.55;69.79;100914.13;10413982;28;20157;-82
2022/10/03 05:09:12;;;;;;;21.77;11.98;;;;;;;9.61;69.72;100917.34;10398559;28;20741;-81
2022/10/03 05:14:50;;;;;;;26.48;15.27;;;;;;;9.69;69.35;100919.69;10396143;28;20065;-82
2022/10/03 05:20:18;;;;;;;36.67;17.25;;;;;;;9.67;69.29;100931.13;10398458;28;20870;-81
2022/10/03 05:32:12;;;;;;;25.77;13.68;;;;;;;9.81;69.49;100927.00;10416359;28;20045;-82
2022/10/03 05:37:39;;;;;;;20.15;12.20;;;;;;;9.94;69.36;100935.19;10414762;28;20057;-82
2022/10/03 05:42:54;;;;;;;33.42;14.68;;;;;;;10.04;69.25;100942.59;10410786;28;20396;-82
2022/10/03 05:48:10;;;;;;;28.60;14.52;;;;;;;10.11;69.00;100935.38;10411260;28;20064;-83
2022/10/03 05:53:43;;;;;;;25.80;14.65;;;;;;;10.05;68.97;100941.72;10400505;28;20084;-83
2022/10/03 05:59:08;;;;;;;37.08;16.70;;;;;;;9.99;69.45;100944.53;10399024;28;20407;-83
2022/10/03 06:04:22;;;;;;;27.77;14.90;;;;;;;10.16;69.42;100955.16;10394926;28;20061;-81
2022/10/03 06:09:38;;;;;;;38.63;16.88;;;;;;;10.39;69.05;100959.44;10399915;28;20507;-81
2022/10/03 06:15:16;;;;;;;27.88;15.25;;;;;;;10.55;68.50;100954.38;10400491;28;20061;-81
2022/10/03 06:20:36;;;;;;;29.15;14.30;;;;;;;10.67;68.24;100962.53;10389609;28;20053;-80
2022/10/03 06:26:01;;;;;;;26.10;14.32;;;;;;;10.76;68.28;100964.78;10395949;28;20049;-80
2022/10/03 06:31:10;;;;;;;31.52;14.77;;;;;;;10.89;68.13;100968.53;10392085;28;20800;-81
2022/10/03 06:36:23;;;;;;;34.90;18.05;;;;;;;11.11;67.87;100977.13;10409023;28;20065;-81
2022/10/03 06:41:54;;;;;;;37.30;18.95;;;;;;;11.23;67.45;100981.81;10409590;28;20048;-81
2022/10/03 06:47:05;;;;;;;30.53;17.53;;;;;;;11.41;67.56;100980.13;10372685;28;20072;-80
2022/10/03 06:52:09;;;;;;;21.25;13.82;;;;;;;11.50;67.24;100979.69;10409025;28;20053;-80
2022/10/03 06:57:23;;;;;;;29.05;15.15;;;;;;;11.61;66.87;100984.44;10411946;28;20494;-81
2022/10/03 07:02:41;;;;;;;30.92;13.77;;;;;;;11.77;66.59;100988.88;10405957;28;20045;-80
2022/10/03 07:08:01;;;;;;;35.38;15.82;;;;;;;12.01;66.46;100989.44;10395966;28;20738;-81
2022/10/03 07:13:47;;;;;;;32.85;17.38;;;;;;;11.97;66.28;101001.00;10396157;28;20050;-81
2022/10/03 07:19:21;;;;;;;23.85;12.65;;;;;;;12.10;65.47;100991.63;10403506;28;20056;-81
2022/10/03 07:24:30;;;;;;;23.88;12.60;;;;;;;12.26;65.70;100994.34;10412900;28;20054;-81
2022/10/03 07:29:41;;;;;;;24.67;13.05;;;;;;;12.41;65.83;100997.09;10407666;28;20045;-80
2022/10/03 07:34:45;;;;;;;31.23;14.07;;;;;;;12.57;65.12;100998.00;10411784;28;20053;-81
2022/10/03 07:40:07;;;;;;;29.30;12.38;;;;;;;12.74;64.89;101013.72;10401781;28;20064;-81
2022/10/03 07:45:32;;;;;;;25.58;11.05;;;;;;;12.92;64.58;101012.75;10401017;28;20049;-81
2022/10/03 07:50:58;;;;;;;26.30;11.85;;;;;;;13.11;64.75;101022.34;10404544;28;20213;-81
2022/10/03 07:56:06;;;;;;;22.40;10.52;;;;;;;13.19;63.99;101022.78;10417786;28;20060;-81
2022/10/03 08:01:32;;;;;;;23.08;9.88;;;;;;;13.36;63.76;101025.31;10416827;28;20045;-81
2022/10/03 08:06:42;;;;;;;21.73;10.80;;;;;;;13.36;63.65;101027.97;10420577;28;20916;-81
2022/10/03 08:12:05;;;;;;;21.83;10.70;;;;;;;13.39;63.62;101020.75;10408953;28;20057;-81
2022/10/03 08:17:26;;;;;;;24.70;9.82;;;;;;;13.59;63.07;101027.59;10402078;28;20060;-81
2022/10/03 08:23:06;;;;;;;23.67;9.70;;;;;;;13.67;62.35;101028.88;10418689;28;20069;-81
2022/10/03 08:28:40;;;;;;;20.13;10.00;;;;;;;13.76;62.81;101030.13;10400610;28;20483;-81
2022/10/03 08:34:06;;;;;;;22.42;9.70;;;;;;;13.98;62.28;101022.75;10418813;28;20060;-81
2022/10/03 08:39:43;;;;;;;24.20;9.27;;;;;;;13.99;62.10;101026.22;10402142;28;20418;-80
2022/10/03 08:45:11;;;;;;;19.08;8.63;;;;;;;14.04;61.40;101025.03;10418019;28;20499;-81
2022/10/03 08:50:19;;;;;;;19.95;9.18;;;;;;;14.08;61.21;101029.19;10378813;28;21084;-81
2022/10/03 08:55:55;;;;;;;20.20;8.77;;;;;;;13.86;60.84;101049.72;10410400;28;20049;-81
2022/10/03 09:01:20;;;;;;;22.65;8.68;;;;;;;13.89;61.43;101046.06;10396713;28;20061;-81
2022/10/03 09:06:46;;;;;;;27.23;9.18;;;;;;;14.22;60.83;101042.41;10415859;28;20057;-81
2022/10/03 09:12:22;;;;;;;23.85;12.13;;;;;;;14.41;60.96;101042.19;10402303;28;20060;-81
2022/10/03 09:17:42;;;;;;;25.95;10.65;;;;;;;14.69;60.11;101046.72;10414792;28;20048;-81
2022/10/03 09:23:10;;;;;;;22.38;7.18;;;;;;;15.05;57.78;101045.38;10397105;28;20305;-81
2022/10/03 09:28:30;;;;;;;14.27;6.40;;;;;;;15.40;57.15;101043.22;10417315;28;20065;-78
2022/10/03 09:33:49;;;;;;;17.20;7.63;;;;;;;15.71;56.94;101050.09;10418426;28;20053;-78
2022/10/03 09:39:12;;;;;;;16.48;6.07;;;;;;;15.97;54.72;101042.19;10396770;28;20931;-78
2022/10/03 09:44:17;;;;;;;17.58;6.93;;;;;;;16.20;55.57;101038.88;10414083;28;21088;-78
2022/10/03 09:49:38;;;;;;;21.75;7.85;;;;;;;16.11;56.22;101046.56;10402366;28;20053;-78
2022/10/03 09:54:42;;;;;;;16.95;6.15;;;;;;;16.31;54.79;101037.34;10398484;28;20057;-78
2022/10/03 10:00:15;;;;;;;15.48;6.05;;;;;;;16.43;53.33;101024.22;10397915;28;20047;-78
2022/10/03 10:05:29;;;;;;;12.68;5.38;;;;;;;16.88;52.67;101017.59;10402078;28;20046;-78
2022/10/03 10:10:50;;;;;;;13.70;5.82;;;;;;;16.95;51.58;101016.25;10402513;28;20048;-77
2022/10/03 10:16:14;;;;;;;11.45;4.97;;;;;;;16.92;51.86;101011.16;10399559;28;20114;-78
2022/10/03 10:22:00;;;;;;;16.33;5.00;;;;;;;16.70;51.08;101005.66;10398834;28;20053;-78
2022/10/03 10:27:28;;;;;;;11.40;4.78;;;;;;;16.87;51.06;101010.66;10199860;28;20067;-78
2022/10/03 10:32:59;;;;;;;17.17;5.80;;;;;;;17.21;50.70;101004.69;10390162;28;20055;-78
2022/10/03 10:38:08;;;;;;;11.02;4.32;;;;;;;17.35;48.87;101006.41;10396763;28;20064;-78
2022/10/03 10:43:28;;;;;;;12.35;4.30;;;;;;;17.22;48.00;101001.09;10414850;28;20518;-78
2022/10/03 10:48:48;;;;;;;14.18;4.85;;;;;;;16.87;49.31;101000.91;10416087;28;20059;-78
2022/10/03 10:53:53;;;;;;;10.97;4.57;;;;;;;16.70;49.23;101003.03;10395883;28;20049;-78
2022/10/03 10:59:10;;;;;;;12.68;5.10;;;;;;;16.83;48.68;100990.66;10410149;28;20045;-78
2022/10/03 11:04:37;;;;;;;13.38;4.40;;;;;;;16.77;48.02;100996.38;10396376;28;20056;-79
2022/10/03 11:09:50;;;;;;;11.20;4.13;;;;;;;16.65;48.86;100984.84;10398141;28;20064;-78
2022/10/03 11:15:29;;;;;;;8.98;3.92;;;;;;;16.34;48.78;100992.28;10407555;28;20060;-78
2022/10/03 11:20:58;;;;;;;12.90;4.72;;;;;;;16.24;48.77;101002.59;10403810;28;20057;-78
2022/10/03 11:26:17;;;;;;;12.15;5.10;;;;;;;16.12;50.10;101001.59;10418454;28;20061;-79
2022/10/03 11:31:37;;;;;;;11.25;5.03;;;;;;;16.24;49.64;100994.69;10406603;28;20060;-78
2022/10/03 11:37:07;;;;;;;13.80;4.73;;;;;;;16.18;48.71;101001.19;10420458;28;20514;-78
2022/10/03 11:42:32;;;;;;;12.52;5.10;;;;;;;16.48;48.93;100992.22;10422530;28;20490;-78
2022/10/03 11:47:54;;;;;;;13.05;4.90;;;;;;;16.89;48.27;100987.59;10421614;28;20557;-78
2022/10/03 11:53:01;;;;;;;15.18;5.70;;;;;;;17.10;48.49;100982.63;10422399;28;20057;-78
2022/10/03 11:58:32;;;;;;;15.15;5.57;;;;;;;17.03;47.81;100976.91;10422473;28;20160;-79
2022/10/03 12:03:38;;;;;;;;;;;;;;;16.72;48.95;100977.34;10403394;28;20053;-78
2022/10/03 12:09:18;;;;;;;11.60;4.68;;;;;;;16.92;47.88;100968.88;10421902;28;19925;-78
2022/10/03 12:14:36;;;;;;;14.75;4.72;;;;;;;17.28;47.32;100960.19;10402693;28;20049;-78
2022/10/03 12:19:59;;;;;;;13.45;4.45;;;;;;;17.23;46.76;100952.56;10421955;28;20053;-78
2022/10/03 12:25:24;;;;;;;10.73;4.22;;;;;;;17.10;46.21;100949.09;10419766;28;20049;-78
2022/10/03 12:30:39;;;;;;;13.23;4.03;;;;;;;16.86;46.19;100948.16;10417953;28;20072;-78
2022/10/03 12:35:49;;;;;;;10.30;4.10;;;;;;;17.18;46.05;100943.28;10405007;28;20070;-78
2022/10/03 12:41:20;;;;;;;12.75;4.15;;;;;;;17.47;45.77;100936.75;10401063;28;20970;-78
2022/10/03 12:46:48;;;;;;;13.07;4.18;;;;;;;17.69;44.79;100928.94;10421977;28;20053;-78
2022/10/03 12:52:01;;;;;;;11.77;3.90;;;;;;;17.61;44.82;100920.72;10418523;28;20053;-78
2022/10/03 12:57:28;;;;;;;16.48;4.32;;;;;;;17.53;44.76;100923.09;10406295;28;20149;-78
2022/10/03 13:02:46;;;;;;;8.57;4.25;;;;;;;17.73;45.46;100920.69;10403758;28;20052;-78
2022/10/03 13:08:06;;;;;;;8.50;4.07;;;;;;;18.08;45.07;100910.09;10420669;28;20080;-78
2022/10/03 13:13:44;;;;;;;11.20;4.55;;;;;;;18.16;44.62;100909.53;10402638;28;20045;-78
2022/10/03 13:19:03;;;;;;;11.82;4.35;;;;;;;18.21;45.51;100900.31;10413249;28;20904;-78
2022/10/03 13:24:33;;;;;;;11.70;4.25;;;;;;;17.87;44.44;100911.72;10399301;28;20475;-78
2022/10/03 13:30:08;;;;;;;11.48;4.28;;;;;;;17.74;44.62;100917.09;10417858;28;20064;-78
2022/10/03 13:41:13;;;;;;;8.10;4.13;;;;;;;18.02;44.85;100920.31;10417977;28;20052;-78
2022/10/03 13:46:52;;;;;;;6.97;3.72;;;;;;;17.70;45.18;100915.63;10417272;28;20486;-78
2022/10/03 13:52:01;;;;;;;11.55;4.35;;;;;;;17.61;45.48;100907.50;10397414;28;20104;-77
2022/10/03 13:57:28;;;;;;;10.57;4.43;;;;;;;17.62;45.72;100906.56;10418340;28;20064;-78
2022/10/03 14:02:58;;;;;;;10.73;3.90;;;;;;;17.73;46.47;100912.75;10414551;28;20522;-79
2022/10/03 14:08:22;;;;;;;10.67;4.00;;;;;;;17.30;46.20;100902.75;10410787;28;20568;-78
2022/10/03 14:13:58;;;;;;;9.25;4.05;;;;;;;17.22;46.40;100905.91;10399092;28;20060;-78
2022/10/03 14:19:23;;;;;;;13.80;4.07;;;;;;;17.18;46.58;100900.97;10399399;28;20053;-78
2022/10/03 14:24:53;;;;;;;10.65;4.07;;;;;;;17.11;46.39;100890.00;10414030;28;20582;-78
2022/10/03 14:30:03;;;;;;;10.50;3.67;;;;;;;17.27;46.20;100889.72;10395467;28;20053;-78
2022/10/03 14:35:07;;;;;;;;;;;;;;;17.08;46.15;100889.38;10416484;28;20095;-78
2022/10/03 14:40:34;;;;;;;10.52;3.80;;;;;;;17.41;45.16;100879.88;10413746;28;20893;-78
2022/10/03 14:45:47;;;;;;;11.60;3.95;;;;;;;17.41;45.38;100886.97;10411705;28;20050;-78
2022/10/03 14:50:54;;;;;;;11.10;3.83;;;;;;;17.22;46.35;100890.06;10394768;28;20053;-78
2022/10/03 14:56:05;;;;;;;13.18;3.63;;;;;;;17.33;46.00;100886.63;10395582;28;20522;-78
2022/10/03 15:01:14;;;;;;;12.32;3.35;;;;;;;17.21;45.90;100885.75;10413317;28;20040;-78
2022/10/03 15:06:44;;;;;;;10.30;3.78;;;;;;;17.30;46.67;100878.94;10414296;28;20057;-78
2022/10/03 15:11:53;;;;;;;10.20;3.70;;;;;;;17.32;46.79;100871.75;10413325;28;20057;-78
2022/10/03 15:17:15;;;;;;;11.10;3.58;;;;;;;17.19;47.06;100870.94;10395913;28;20456;-78
2022/10/03 15:22:21;;;;;;;12.05;3.65;;;;;;;17.09;47.34;100865.47;10398017;28;20049;-77
2022/10/03 15:27:26;;;;;;;10.05;3.75;;;;;;;16.90;48.65;100873.03;10399092;28;20053;-78
2022/10/03 15:32:37;;;;;;;17.10;4.03;;;;;;;16.52;49.21;100874.88;10416438;28;20099;-78
2022/10/03 15:37:42;;;;;;;9.57;3.50;;;;;;;16.51;49.23;100875.84;10416177;28;20053;-78
2022/10/03 15:42:59;;;;;;;8.77;3.17;;;;;;;16.43;49.29;100875.47;10416334;28;20052;-78
2022/10/03 15:48:06;;;;;;;9.45;3.40;;;;;;;16.43;49.35;100870.19;10399919;28;20064;-78
2022/10/03 15:53:24;;;;;;;8.00;3.10;;;;;;;16.33;49.55;100858.56;10395878;28;20521;-78
2022/10/03 15:58:46;;;;;;;7.75;3.72;;;;;;;16.40;50.56;100851.94;10408447;28;20053;-78
2022/10/03 16:03:58;;;;;;;9.27;4.10;;;;;;;16.40;50.88;100844.00;10399760;28;20056;-79
2022/10/03 16:09:06;;;;;;;18.35;5.03;;;;;;;16.32;51.85;100852.47;10418754;28;20056;-78
2022/10/03 16:14:15;;;;;;;12.70;3.88;;;;;;;16.18;52.14;100861.31;10419284;28;20472;-78
2022/10/03 16:19:40;;;;;;;10.75;3.10;;;;;;;16.01;51.98;100850.22;10398636;28;20061;-78
2022/10/03 16:24:52;;;;;;;12.75;4.18;;;;;;;16.00;51.95;100846.72;10399612;28;20072;-78
2022/10/03 16:30:50;;;;;;;12.95;3.72;;;;;;;15.88;51.85;100852.84;10400951;28;20392;-78
2022/10/03 16:35:56;;;;;;;11.93;3.15;;;;;;;15.85;52.11;100836.38;10371220;28;20064;-78
2022/10/03 16:41:01;;;;;;;13.60;4.70;;;;;;;15.75;53.89;100830.88;10418668;28;20438;-77
2022/10/03 16:46:18;;;;;;;13.32;5.40;;;;;;;15.51;54.88;100824.56;10400804;28;20863;-78
2022/10/03 16:51:34;;;;;;;14.07;5.13;;;;;;;15.28;55.82;100827.84;10416356;28;20057;-78
2022/10/03 16:56:42;;;;;;;13.55;3.67;;;;;;;15.06;55.72;100830.19;10418060;28;20053;-78
2022/10/03 17:01:56;;;;;;;12.02;3.80;;;;;;;14.84;56.16;100824.59;10416395;28;20045;-78
2022/10/03 17:07:01;;;;;;;9.77;3.70;;;;;;;14.65;56.25;100835.44;10415681;28;20079;-77
2022/10/03 17:12:07;;;;;;;9.57;4.70;;;;;;;14.51;56.83;100833.63;10398472;28;20160;-78
2022/10/03 17:17:14;;;;;;;13.95;4.30;;;;;;;14.28;57.64;100836.81;10407848;28;20049;-77
2022/10/03 17:22:31;;;;;;;16.65;5.00;;;;;;;14.04;58.48;100832.19;10401385;28;20228;-78
2022/10/03 17:27:39;;;;;;;14.98;6.70;;;;;;;13.85;59.56;100829.78;10397485;28;20050;-78
2022/10/03 17:32:44;;;;;;;15.68;5.00;;;;;;;13.63;59.30;100843.34;10416038;28;20041;-78
2022/10/03 17:37:58;;;;;;;11.77;4.47;;;;;;;13.41;60.37;100836.75;10399863;28;20459;-78
2022/10/03 17:56:33;;;;;;;15.30;4.32;;;;;;;12.78;61.93;100831.50;10413860;28;20033;-79
2022/10/03 18:01:49;;;;;;;15.07;4.63;;;;;;;12.70;62.19;100828.47;10416766;28;20103;-79
2022/10/03 18:07:10;;;;;;;13.27;4.47;;;;;;;12.53;62.60;100836.41;10412637;28;20044;-80
2022/10/03 18:12:28;;;;;;;10.45;4.70;;;;;;;12.36;62.71;100828.56;10400324;28;20049;-80
2022/10/03 18:17:54;;;;;;;20.85;5.82;;;;;;;12.19;63.17;100833.00;10413358;28;20053;-79
2022/10/03 18:23:07;;;;;;;16.38;6.38;;;;;;;12.09;63.52;100824.72;10394839;28;20048;-80
2022/10/03 18:28:13;;;;;;;;;;;;;;;11.67;64.69;100826.91;10415692;28;20080;-80
2022/10/03 18:33:22;;;;;;;18.13;6.72;;;;;;;11.83;63.75;100835.72;10395670;28;20119;-80
2022/10/03 18:38:30;;;;;;;15.20;6.18;;;;;;;11.68;64.27;100839.13;10417444;28;20142;-80
2022/10/03 18:44:00;;;;;;;18.08;5.82;;;;;;;11.53;64.84;100834.63;10416042;28;20510;-80
2022/10/03 18:49:25;;;;;;;11.77;5.00;;;;;;;11.48;64.90;100844.50;10411978;28;20136;-80
2022/10/03 18:55:00;;;;;;;13.35;6.05;;;;;;;11.42;64.84;100837.75;10413087;28;20060;-80
2022/10/03 19:00:17;;;;;;;19.05;5.93;;;;;;;11.36;64.92;100832.00;10395431;28;20053;-80
2022/10/03 19:05:32;;;;;;;15.05;6.63;;;;;;;11.25;65.03;100830.72;10410436;28;20049;-80
2022/10/03 19:10:54;;;;;;;17.15;6.30;;;;;;;11.16;65.41;100835.56;10413337;28;20048;-80
2022/10/03 19:16:23;;;;;;;12.90;5.32;;;;;;;11.12;65.54;100836.63;10415580;28;20411;-80
2022/10/03 19:21:26;;;;;;;16.65;6.53;;;;;;;10.96;65.32;100833.00;10409320;28;20083;-81
2022/10/03 19:26:33;;;;;;;22.02;5.80;;;;;;;10.90;65.31;100834.16;10408753;28;20103;-81
2022/10/03 19:31:45;;;;;;;17.65;6.35;;;;;;;10.90;65.88;100833.28;10400117;28;20597;-80
2022/10/03 19:36:49;;;;;;;17.02;6.35;;;;;;;10.85;65.62;100820.41;10419992;28;20056;-80
2022/10/03 19:42:17;;;;;;;16.40;6.78;;;;;;;10.75;65.55;100829.63;10402668;28;20063;-80
2022/10/03 19:47:24;;;;;;;15.13;7.18;;;;;;;10.66;65.57;100827.44;10401594;28;20471;-81
2022/10/03 19:52:32;;;;;;;14.38;6.65;;;;;;;10.55;65.65;100832.28;10400538;28;20513;-80
2022/10/03 19:57:34;;;;;;;13.52;6.03;;;;;;;10.39;66.09;100832.16;10400945;28;20443;-81
2022/10/03 20:02:36;;;;;;;15.93;6.20;;;;;;;10.39;66.25;100815.59;10418385;28;20046;-80
2022/10/03 20:07:46;;;;;;;14.43;6.25;;;;;;;10.35;66.10;100809.66;10399683;28;20491;-81
2022/10/03 20:12:51;;;;;;;16.70;6.95;;;;;;;10.16;66.04;100826.22;10416916;28;20053;-80
2022/10/03 20:18:02;;;;;;;16.98;7.15;;;;;;;10.04;66.51;100826.75;10420501;28;20052;-80
2022/10/03 20:23:12;;;;;;;18.65;7.28;;;;;;;9.95;66.26;100841.06;10418485;28;20045;-80
2022/10/03 20:28:22;;;;;;;18.10;7.13;;;;;;;9.90;66.57;100835.19;10401388;28;20064;-80
2022/10/03 20:33:28;;;;;;;20.33;8.38;;;;;;;9.90;66.51;100836.97;10422114;28;20088;-81
2022/10/03 20:38:55;;;;;;;19.33;10.00;;;;;;;9.75;66.82;100835.84;10417931;28;20053;-80
2022/10/03 20:44:38;;;;;;;19.15;8.10;;;;;;;9.71;66.65;100846.50;10400133;28;20045;-80
2022/10/03 20:49:47;;;;;;;20.45;8.13;;;;;;;9.55;66.81;100847.09;10402861;28;20636;-81
2022/10/03 20:54:57;;;;;;;19.58;7.38;;;;;;;9.56;66.58;100838.31;10416436;28;20411;-81
2022/10/03 21:00:15;;;;;;;21.47;8.03;;;;;;;9.51;66.82;100834.22;10411681;28;20053;-80
2022/10/03 21:05:21;;;;;;;13.93;8.07;;;;;;;9.43;66.66;100831.94;10409516;28;20050;-80
2022/10/03 21:10:36;;;;;;;22.00;8.48;;;;;;;9.20;66.78;100834.59;10395626;28;20049;-81
2022/10/03 21:15:50;;;;;;;24.42;10.32;;;;;;;9.08;66.91;100845.53;10417119;28;20049;-80
2022/10/03 21:21:12;;;;;;;20.20;7.15;;;;;;;9.10;67.04;100845.44;10414936;28;20672;-80
2022/10/03 21:26:23;;;;;;;18.67;7.97;;;;;;;9.05;66.90;100837.81;10416318;28;20053;-81
2022/10/03 21:31:39;;;;;;;17.67;6.60;;;;;;;9.08;67.43;100835.09;10410948;28;20100;-81
2022/10/03 21:36:48;;;;;;;14.20;6.35;;;;;;;9.15;67.07;100836.56;10408194;28;20131;-80
2022/10/03 21:42:10;;;;;;;27.88;8.23;;;;;;;8.96;66.51;100835.56;10396906;28;20049;-81
2022/10/03 21:47:27;;;;;;;21.58;7.53;;;;;;;8.91;67.06;100831.44;10415040;28;20056;-80
2022/10/03 21:52:35;;;;;;;197.20;13.00;;;;;;;8.83;67.20;100829.13;10399787;28;20490;-80
2022/10/03 21:57:45;;;;;;;177.90;12.20;;;;;;;8.79;67.44;100820.56;10397746;28;20045;-80
2022/10/03 22:02:56;;;;;;;58.33;8.60;;;;;;;8.81;67.31;100808.31;10412718;28;20053;-80
2022/10/03 22:08:34;;;;;;;588.65;27.20;;;;;;;8.61;67.17;100815.19;10393144;28;20053;-81
2022/10/03 22:13:39;;;;;;;126.88;10.55;;;;;;;8.59;67.55;100817.00;10394929;28;20059;-81
2022/10/03 22:19:09;;;;;;;239.90;13.50;;;;;;;8.54;67.57;100805.91;10397056;28;20060;-81
2022/10/03 22:24:45;;;;;;;120.72;10.20;;;;;;;8.54;67.21;100803.31;10396690;28;20052;-80
2022/10/03 22:29:47;;;;;;;238.55;11.55;;;;;;;8.60;67.38;100790.03;10412371;28;20160;-81
2022/10/03 22:34:48;;;;;;;169.48;10.73;;;;;;;8.60;67.38;100797.84;10394065;28;20052;-81
2022/10/03 22:39:50;;;;;;;301.13;14.88;;;;;;;8.56;67.29;100794.53;10409396;28;20053;-80
2022/10/03 22:44:53;;;;;;;178.55;12.43;;;;;;;8.57;67.19;100787.53;10410750;28;20045;-80
2022/10/03 22:50:00;;;;;;;90.75;8.52;;;;;;;8.51;67.26;100790.38;10411238;28;20763;-81
2022/10/03 22:55:06;;;;;;;53.92;8.80;;;;;;;8.55;67.54;100789.34;10396998;28;20049;-80
2022/10/03 23:00:10;;;;;;;211.07;11.18;;;;;;;8.50;67.50;100779.13;10411070;28;20053;-81
2022/10/03 23:05:46;;;;;;;33.97;6.63;;;;;;;8.45;67.82;100764.53;10413245;28;20439;-81
2022/10/03 23:11:03;;;;;;;42.25;7.20;;;;;;;8.47;67.44;100747.94;10397030;28;20514;-81
2022/10/03 23:16:29;;;;;;;232.70;12.68;;;;;;;8.39;67.53;100749.13;10417514;28;20053;-80
2022/10/03 23:21:32;;;;;;;235.18;17.55;;;;;;;8.41;67.72;100744.72;10419389;28;20664;-80
2022/10/03 23:27:00;;;;;;;115.55;12.02;;;;;;;8.42;67.48;100738.59;10418668;28;20056;-81
2022/10/03 23:32:08;;;;;;;127.50;11.50;;;;;;;8.40;67.40;100740.41;10418333;28;20407;-80
2022/10/03 23:37:12;;;;;;;87.43;11.25;;;;;;;8.47;67.76;100747.06;10417921;28;20061;-80
2022/10/03 23:42:23;;;;;;;65.47;10.02;;;;;;;8.55;67.67;100750.25;10401706;28;20449;-81
2022/10/03 23:47:43;;;;;;;;;;;;;;;8.40;68.35;100750.84;10417813;28;20080;-81
2022/10/03 23:52:50;;;;;;;122.68;11.23;;;;;;;8.64;67.63;100750.75;10405725;28;19963;-80
2022/10/03 23:57:52;;;;;;;128.80;12.82;;;;;;;8.75;67.29;100758.16;10400496;28;20052;-81
